Tiempo atmosférico en la estación meteorológica de Córdoba, Prágdena, Córdoba (275 m.)

Fecha
DESCASC
Temp. máxima en grados centígrados (hora)
DESCASC
Temp. mínima en grados centígrados (hora)
DESCASC
Temp. media en grados centígrados
DESCASC
Racha de viento máxima en m/sg (hora)
DESCASC
Velocidad máxima media en intervalos de 10 minutos(hora)
DESCASC
Precipitaciones diarias en mm
DESCASC
Precipitaciones de 00:00 a 06:00 en mm
DESCASC
Precipitaciones de 06:00 a 12:00 en mm
DESCASC
Precipitaciones de 12:00 a 18:00 en mm
DESCASC
Precipitaciones de 18:00 a 24:00 en mm
DESCASC
22-10-2017 25.9 (17:40) 14 (08:10) 19.9 6.67 (13:30) 4.17 (13:40) 0 0 0 0 0
21-10-2017 25.7 (17:30) 15 (03:20) 20.4 5.28 (21:40) 3.33 (22:30) 0 0 0 0 0
20-10-2017 22.7 (17:00) 13.2 (08:50) 18 3.61 (16:10) 2.22 (19:30) 0 0 0 0 0
19-10-2017 20.4 (16:30) 13.3 (00:00) 16.8 8.89 (01:20) 5.56 (01:30) 13.8 13.8 0 0 0
18-10-2017 18 (17:50) 15.2 (00:00) 16.6 9.17 (23:59) 4.44 (11:20) 23.8 11 6 5 1.8
17-10-2017 26.5 (16:50) 16.6 (00:00) 21.6 9.72 (18:40) 5.83 (18:40) 0.4 0 0 0 0.4
16-10-2017 30.9 (17:40) 15.1 (00:00) 23 8.61 (19:30) 4.72 (18:20) 0 0 0 0 0
15-10-2017 33.5 (16:30) 16.4 (00:00) 24.9 9.17 (18:00) 6.11 (18:20) 0 0 0 0 0
14-10-2017 33 (15:40) 16.9 (00:00) 24.9 4.72 (09:30) 3.89 (09:30) 0 0 0 0 0
13-10-2017 32.7 (16:50) 15.8 (00:00) 24.3 6.67 (14:40) 3.89 (14:40) 0 0 0 0 0
12-10-2017 33.2 (17:00) 17 (00:00) 25.1 7.5 (12:40) 3.61 (03:10) 0 0 0 0 0
11-10-2017 32.7 (18:30) 15.4 (00:00) 24.1 5.83 (16:40) 3.61 (16:40) 0 0 0 0 0
10-10-2017 31.9 (17:30) 14.6 (00:00) 23.3 6.11 (18:30) 3.33 (18:30) 0 0 0 0 0
09-10-2017 32.1 (18:00) 16 (00:00) 24 6.39 (16:20) 2.5 (18:10) 0 0 0 0 0
08-10-2017 31.1 (17:50) 17.5 (00:00) 24.3 4.72 (18:00) 2.78 (18:00) 0 0 0 0 0
07-10-2017 32.7 (17:30) 16.2 (00:00) 24.5 9.72 (15:50) 5 (18:50) 0 0 0 0 0
06-10-2017 34.4 (18:50) 16.5 (00:00) 25.5 6.67 (15:50) 2.5 (16:10) 0 0 0 0 0
05-10-2017 32.2 (18:30) 17.8 (00:00) 25 7.22 (14:00) 3.89 (17:30) 0 0 0 0 0
04-10-2017 32 (17:10) 18.4 (00:00) 25.2 8.33 (18:20) 5 (19:50) 0 0 0 0 0
03-10-2017 32.7 (18:40) 17.5 (00:00) 25.1 7.22 (21:30) 4.17 (21:20) 0 0 0 0 0
02-10-2017 32.7 (18:00) 17.9 (00:00) 25.3 9.72 (13:30) 5.28 (13:00) 0 0 0 0 0
01-10-2017 32.3 (17:50) 18 (00:00) 25.1 7.78 (21:10) 5 (20:40) 0 0 0 0 0
30-09-2017 31.4 (18:20) 16.8 (00:00) 24.1 5.28 (17:40) 3.06 (01:00) 0 0 0 0 0
29-09-2017 31.3 (18:50) 19.2 (00:00) 25.3 6.39 (02:10) 4.44 (01:50) 0 0 0 0 0
28-09-2017 30 (16:20) 19.2 (00:00) 24.6 7.22 (23:20) 4.17 (23:20) 0 0 0 0 0
27-09-2017 27.6 (16:50) 15.5 (00:00) 21.6 8.06 (17:30) 3.61 (18:10) 0 0 0 0 0
26-09-2017 31.2 (18:00) 14.9 (00:00) 23.1 6.67 (22:00) 3.89 (22:10) 0 0 0 0 0
25-09-2017 32.4 (16:50) 17.2 (00:00) 24.8 9.44 (15:20) 5.56 (15:20) 0 0 0 0 0
24-09-2017 32.1 (17:00) 17.1 (00:00) 24.6 7.5 (15:40) 4.17 (19:20) 0 0 0 0 0
23-09-2017 31.2 (18:40) 17.7 (00:00) 24.5 8.61 (00:40) 5 (00:40) 0 0 0 0 0

Gráficas

Temp. máximas Temp. mínimas Temp. medias Precipitaciones Rachas de viento máximas Velocidades máximas media en intervalos de 10 minutos

Datos horarios

Fecha y hora oficial Temperatura (ºC) Velocidad del viento (km/h) Dirección del viento Racha (km/h) Dirección de racha Precipitación (mm) Presión (hPa) Tendencia (hPa) Humedad (%)
2017-10-22 23:00:00 18.3 4 Norte 10 Noroeste 0 -- -- 66
2017-10-22 22:00:00 20.1 4 Este 8 Este 0 -- -- 59
2017-10-22 21:00:00 20.8 3 Este 8 Oeste 0 -- -- 58
2017-10-22 20:00:00 22.3 3 Noroeste 7 Oeste 0 -- -- 53
2017-10-22 19:00:00 25.5 2 Noroeste 13 Norte 0 -- -- 44
2017-10-22 18:00:00 25.9 3 Nordeste 12 Nordeste 0 -- -- 43
2017-10-22 17:00:00 25.6 3 Noroeste 16 Norte 0 -- -- 45
2017-10-22 16:00:00 25 7 Norte 18 Nordeste 0 -- -- 47
2017-10-22 15:00:00 24.5 8 Nordeste 23 Nordeste 0 -- -- 47
2017-10-22 14:00:00 23.4 15 Nordeste 24 Nordeste 0 -- -- 54
2017-10-22 13:00:00 22 14 Nordeste 21 Nordeste 0 -- -- 61
2017-10-22 12:00:00 19.9 13 Nordeste 21 Nordeste 0 -- -- 70
2017-10-22 11:00:00 17.4 7 Nordeste 13 Nordeste 0 -- -- 85
2017-10-22 10:00:00 15.3 4 Nordeste 6 Nordeste 0 -- -- 93
2017-10-22 09:00:00 14.4 3 Nordeste 10 Norte 0 -- -- 95
2017-10-22 08:00:00 14.1 6 Norte 8 Nordeste 0 -- -- 94
2017-10-22 07:00:00 14.8 6 Norte 8 Norte 0 -- -- 90
2017-10-22 06:00:00 15.9 4 Nordeste 6 Nordeste 0 -- -- 88
2017-10-22 05:00:00 15.6 0 Calma 9 Norte 0 -- -- 89
2017-10-22 04:00:00 16.7 4 Nordeste 8 Nordeste 0 -- -- 85
2017-10-22 03:00:00 17.5 6 Norte 13 Noroeste 0 -- -- 82
2017-10-22 02:00:00 17.8 5 Norte 17 Noroeste 0 -- -- 82
2017-10-22 01:00:00 18.2 6 Norte 13 Norte 0 -- -- 80
2017-10-22 00:00:00 18.8 6 Norte 13 Norte 0 -- -- 78
2017-10-21 23:00:00 20 11 Norte 18 Norte 0 -- -- 73
2017-10-21 22:00:00 21 9 Norte 19 Noroeste 0 -- -- 71
2017-10-21 21:00:00 21.8 2 Noroeste 6 Oeste 0 -- -- 72
2017-10-21 20:00:00 22.6 4 Oeste 8 Oeste 0 -- -- 69
2017-10-21 19:00:00 24.6 3 Oeste 8 Oeste 0 -- -- 61
2017-10-21 18:00:00 25.4 2 Norte 9 Norte 0 -- -- 56
2017-10-21 17:00:00 25.4 4 Norte 10 Sudeste 0 -- -- 55
2017-10-21 16:00:00 24.7 5 Nordeste 18 Este 0 -- -- 61
2017-10-21 15:00:00 24.1 5 Este 13 Este 0 -- -- 63
2017-10-21 14:00:00 22.4 4 Noroeste 14 Norte 0 -- -- 67
2017-10-21 13:00:00 21.2 7 Norte 12 Noroeste 0 -- -- 72
2017-10-21 12:00:00 19.1 7 Este 13 Noroeste 0 -- -- 81
2017-10-21 11:00:00 18 6 Nordeste 14 Este 0 -- -- 85
2017-10-21 10:00:00 16.5 7 Este 12 Este 0 -- -- 92
2017-10-21 09:00:00 15.9 4 Norte 12 Norte 0 -- -- 94
2017-10-21 08:00:00 15.8 6 Nordeste 10 Nordeste 0 -- -- 92
2017-10-21 07:00:00 15.6 6 Nordeste 12 Norte 0 -- -- 93
2017-10-21 06:00:00 15.5 2 Nordeste 9 Nordeste 0 -- -- 91
2017-10-21 05:00:00 15.6 5 Nordeste 9 Nordeste 0 -- -- 91
2017-10-21 04:00:00 15.4 5 Norte 12 Noroeste 0 -- -- 93
2017-10-21 03:00:00 15.5 2 Sur 9 Nordeste 0 -- -- 91
2017-10-21 02:00:00 15.6 7 Nordeste 9 Nordeste 0 -- -- 93
2017-10-21 01:00:00 16.4 5 Nordeste 6 Nordeste 0 -- -- 88
2017-10-21 00:00:00 17 3 Este 6 Este 0 -- -- 85
2017-10-20 23:00:00 17.6 5 Nordeste 6 Nordeste 0 -- -- 83
2017-10-20 22:00:00 18.2 3 Nordeste 6 Nordeste 0 -- -- 82
2017-10-20 21:00:00 19 5 Este 6 Este 0 -- -- 80
2017-10-20 20:00:00 20.1 4 Este 12 Este 0 -- -- 76
2017-10-20 19:00:00 22.1 6 Este 9 Este 0 -- -- 67
2017-10-20 18:00:00 22.7 6 Este 12 Nordeste 0 -- -- 65
2017-10-20 17:00:00 22.7 6 Este 13 Nordeste 0 -- -- 65
2017-10-20 16:00:00 22.2 3 Sudeste 11 Este 0 -- -- 65
2017-10-20 15:00:00 20.8 5 Este 10 Sudeste 0 -- -- 70
2017-10-20 14:00:00 20 0 Calma 9 Sudeste 0 -- -- 72
2017-10-20 13:00:00 19.8 3 Sur 8 Sur 0 -- -- 73
2017-10-20 12:00:00 18.2 0 Calma 5 Este 0 -- -- 81
2017-10-20 11:00:00 15.7 3 Oeste 5 Sudoeste 0 -- -- 94
2017-10-20 10:00:00 14.6 0 Calma 3 Sudeste 0 -- -- 96
2017-10-20 09:00:00 13.5 0 Calma 4 Sur 0 -- -- 97
2017-10-20 08:00:00 13.5 3 Sur 6 Sur 0 -- -- 96
2017-10-20 07:00:00 13.9 4 Sur 6 Sur 0 -- -- 95
2017-10-20 06:00:00 14 4 Sur 6 Sudoeste 0 -- -- 94
2017-10-20 05:00:00 14.1 6 Sudoeste 10 Sur 0 -- -- 93
2017-10-20 04:00:00 14.4 7 Sur 10 Sur 0 -- -- 91
2017-10-20 03:00:00 14.5 6 Sur 9 Sudoeste 0 -- -- 91
2017-10-20 02:00:00 14.5 4 Sudoeste 8 Sudoeste 0 -- -- 90
2017-10-20 01:00:00 15 5 Sudoeste 8 Sudoeste 0 -- -- 88
2017-10-20 00:00:00 15.5 4 Sudoeste 9 Sudoeste 0 -- -- 87
2017-10-19 23:00:00 16.1 0 Calma 6 Sudeste 0 -- -- 84
2017-10-19 22:00:00 16.3 0 Calma 10 Oeste 0 -- -- 85
2017-10-19 21:00:00 16.9 6 Sudoeste 15 Sudoeste 0 -- -- 82
2017-10-19 20:00:00 18.3 9 Sudoeste 19 Sudoeste 0 -- -- 76
2017-10-19 19:00:00 20 12 Sudoeste 25 Sudoeste 0 -- -- 68
2017-10-19 18:00:00 19.5 13 Sudoeste 27 Sudoeste 0 -- -- 68
2017-10-19 17:00:00 19.7 11 Sudoeste 25 Oeste 0 -- -- 65
2017-10-19 16:00:00 18.9 12 Sudoeste 23 Oeste 0 -- -- 68
2017-10-19 15:00:00 19.2 12 Oeste 21 Oeste 0 -- -- 64
2017-10-19 14:00:00 18.5 8 Sudoeste 15 Sudoeste 0 -- -- 69
2017-10-19 13:00:00 17.4 2 Oeste 9 Nordeste 0 -- -- 75
2017-10-19 12:00:00 16.4 5 Nordeste 13 Nordeste 0 -- -- 85
2017-10-19 11:00:00 14.5 7 Nordeste 15 Este 0 -- -- 94
2017-10-19 10:00:00 13.8 8 Norte 13 Norte 0 -- -- 96
2017-10-19 09:00:00 13.3 5 Norte 13 Norte 0 -- -- 96
2017-10-19 08:00:00 13.7 4 Nordeste 12 Este 0 -- -- 95
2017-10-19 07:00:00 14.4 7 Este 13 Nordeste 0 -- -- 96
2017-10-19 06:00:00 14.9 9 Norte 15 Norte 0.2 -- -- 97
2017-10-19 05:00:00 15 4 Sur 6 Sur 0 -- -- 96
2017-10-19 04:00:00 15.1 6 Sur 14 Sudoeste 0.4 -- -- 96
2017-10-19 03:00:00 15.1 6 Sudoeste 19 Sudoeste 0.4 -- -- 96
2017-10-19 02:00:00 15.4 8 Sudoeste 32 Sudoeste 4 -- -- 95
2017-10-19 01:00:00 15.3 11 Oeste 22 Oeste 8.8 -- -- 96
2017-10-19 00:00:00 16 15 Sudoeste 33 Sudoeste 1.8 -- -- 94
2017-10-18 23:00:00 16.1 13 Sudoeste 28 Sudoeste 0 -- -- 94
2017-10-18 22:00:00 15.8 10 Sudoeste 24 Sudoeste 0 -- -- 93
2017-10-18 21:00:00 15.9 10 Sur 17 Sur 0 -- -- 91
2017-10-18 20:00:00 16.6 8 Sudoeste 16 Sudoeste 0 -- -- 86
2017-10-18 19:00:00 17.5 11 Sudoeste 24 Sudoeste 0 -- -- 79
2017-10-18 18:00:00 17.8 9 Sudoeste 19 Sudoeste 0 -- -- 82
2017-10-18 17:00:00 17.9 11 Sudoeste 22 Sudoeste 0 -- -- 82
2017-10-18 16:00:00 17.2 13 Sudoeste 25 Sudoeste 0 -- -- 88
2017-10-18 15:00:00 16.9 8 Sudoeste 21 Sudoeste 4.6 -- -- 93
2017-10-18 14:00:00 17.1 12 Sudoeste 27 Sudoeste 0.4 -- -- 87
2017-10-18 13:00:00 16.3 14 Sudoeste 24 Sur 0 -- -- 94
2017-10-18 12:00:00 15.6 13 Sudoeste 29 Sur 1 -- -- 95
2017-10-18 11:00:00 15.7 9 Sudoeste 26 Sudoeste 0.6 -- -- 95
2017-10-18 10:00:00 15.3 12 Sur 21 Sudoeste 0.8 -- -- 94
2017-10-18 09:00:00 15.3 15 Sur 27 Sudoeste 2.4 -- -- 93
2017-10-18 08:00:00 16.1 10 Sur 16 Sur 1.2 -- -- 91
2017-10-18 07:00:00 16.2 4 Sudoeste 12 Sur 0 -- -- 91
2017-10-18 06:00:00 16.1 9 Sur 22 Sudeste 1.4 -- -- 89
2017-10-18 05:00:00 16.2 10 Sur 25 Sudeste 4.2 -- -- 91
2017-10-18 04:00:00 16.5 8 Sur 22 Sudoeste 5 -- -- 92
2017-10-18 03:00:00 16.8 5 Oeste 17 Oeste 0.4 -- -- 91
2017-10-18 02:00:00 16.7 6 Oeste 15 Oeste 0 -- -- 86
2017-10-18 01:00:00 16.9 4 Este 10 Nordeste 0 -- -- 85
2017-10-18 00:00:00 17.1 6 Norte 17 Norte 0 -- -- 89
2017-10-17 23:00:00 17.7 8 Norte 17 Noroeste 0 -- -- 87
2017-10-17 22:00:00 19.1 0 Calma 5 Sudeste 0 -- -- 78
2017-10-17 21:00:00 19.5 4 Norte 6 Norte 0 -- -- 77
2017-10-17 20:00:00 20.5 4 Sudoeste 10 Oeste 0 -- -- 75
2017-10-17 19:00:00 20.3 8 Oeste 35 Oeste 0.4 -- -- 77
2017-10-17 18:00:00 25.2 10 Sur 25 Sur 0 -- -- 46
2017-10-17 17:00:00 26.5 14 Sur 26 Sudoeste 0 -- -- 43
2017-10-17 16:00:00 25.3 12 Sur 23 Sur 0 -- -- 42
2017-10-17 15:00:00 24.2 5 Sudoeste 13 Sur 0 -- -- 40
2017-10-17 14:00:00 23.4 3 Noroeste 9 Nordeste 0 -- -- 43
2017-10-17 13:00:00 22.7 4 Noroeste 12 Norte 0 -- -- 47
2017-10-17 12:00:00 21.2 6 Norte 12 Norte 0 -- -- 49
2017-10-17 11:00:00 19.7 6 Norte 10 Norte 0 -- -- 54
2017-10-17 10:00:00 18.4 4 Nordeste 7 Nordeste 0 -- -- 56
2017-10-17 09:00:00 17.6 4 Noroeste 19 Norte 0 -- -- 57
2017-10-17 08:00:00 18.9 13 Este 22 Este 0 -- -- 53
2017-10-17 07:00:00 18.1 13 Nordeste 17 Nordeste 0 -- -- 57
2017-10-17 06:00:00 18.1 10 Nordeste 21 Este 0 -- -- 56
2017-10-17 05:00:00 17.6 9 Nordeste 19 Nordeste 0 -- -- 56
2017-10-17 04:00:00 16.6 5 Norte 10 Nordeste 0 -- -- 59
2017-10-17 03:00:00 17 7 Nordeste 10 Nordeste 0 -- -- 59
2017-10-17 02:00:00 17.8 7 Nordeste 10 Nordeste 0 -- -- 57
2017-10-17 01:00:00 19.1 3 Sudoeste 8 Sur 0 -- -- 59
2017-10-17 00:00:00 20.2 6 Sudoeste 15 Sudoeste 0 -- -- 55
2017-10-16 23:00:00 21.7 8 Sudoeste 18 Sudoeste 0 -- -- 49
2017-10-16 22:00:00 22.3 11 Sudoeste 17 Sudoeste 0 -- -- 47
2017-10-16 21:00:00 23.1 7 Sudoeste 21 Sur 0 -- -- 44
2017-10-16 20:00:00 24.8 15 Sudoeste 31 Sudoeste 0 -- -- 39
2017-10-16 19:00:00 27.6 16 Sudoeste 30 Sudoeste 0 -- -- 33
2017-10-16 18:00:00 30.8 7 Sudoeste 19 Oeste 0 -- -- 28
2017-10-16 17:00:00 30.6 7 Sudoeste 20 Oeste 0 -- -- 26
2017-10-16 16:00:00 30.1 10 Sudoeste 21 Sudoeste 0 -- -- 24
2017-10-16 15:00:00 29.7 8 Oeste 19 Sudoeste 0 -- -- 23
2017-10-16 14:00:00 28.5 5 Oeste 13 Sudoeste 0 -- -- 26
2017-10-16 13:00:00 26.7 4 Nordeste 15 Norte 0 -- -- 29
2017-10-16 12:00:00 24.5 10 Nordeste 19 Este 0 -- -- 34
2017-10-16 11:00:00 21.2 13 Este 18 Nordeste 0 -- -- 38
2017-10-16 10:00:00 18.3 9 Nordeste 14 Este 0 -- -- 42
2017-10-16 09:00:00 15.9 8 Nordeste 12 Nordeste 0 -- -- 50
2017-10-16 08:00:00 15.4 4 Norte 12 Nordeste 0 -- -- 49
2017-10-16 07:00:00 15.5 7 Nordeste 12 Este 0 -- -- 46
2017-10-16 06:00:00 15.8 6 Norte 10 Norte 0 -- -- 41
2017-10-16 05:00:00 17.3 6 Norte 10 Norte 0 -- -- 38
2017-10-16 04:00:00 18.3 4 Oeste 11 Sudoeste 0 -- -- 38
2017-10-16 03:00:00 18.3 8 Oeste 15 Sudoeste 0 -- -- 34
2017-10-16 02:00:00 20.8 10 Nordeste 15 Nordeste 0 -- -- 31
2017-10-16 01:00:00 21.2 6 Nordeste 13 Norte 0 -- -- 31
2017-10-16 00:00:00 21.5 9 Norte 11 Norte 0 -- -- 30
2017-10-15 23:00:00 22.9 6 Nordeste 12 Norte 0 -- -- 28
2017-10-15 22:00:00 24.4 0 Calma 14 Sur 0 -- -- 27
2017-10-15 21:00:00 26.3 10 Sur 20 Sudoeste 0 -- -- 25
2017-10-15 20:00:00 28.1 12 Sudoeste 25 Sudoeste 0 -- -- 23
2017-10-15 19:00:00 30.6 17 Sudoeste 31 Sudoeste 0 -- -- 21
2017-10-15 18:00:00 32.3 20 Sur 33 Sudoeste 0 -- -- 20
2017-10-15 17:00:00 33.4 10 Sudoeste 19 Sur 0 -- -- 19
2017-10-15 16:00:00 33 8 Sudoeste 20 Oeste 0 -- -- 20
2017-10-15 15:00:00 32.3 6 Sudoeste 15 Sur 0 -- -- 21
2017-10-15 14:00:00 30.1 6 Norte 10 Norte 0 -- -- 25
2017-10-15 13:00:00 28.5 4 Norte 12 Norte 0 -- -- 27
2017-10-15 12:00:00 25.9 5 Norte 12 Nordeste 0 -- -- 32
2017-10-15 11:00:00 22.7 8 Norte 12 Norte 0 -- -- 36
2017-10-15 10:00:00 19.7 6 Nordeste 9 Norte 0 -- -- 38
2017-10-15 09:00:00 16.7 4 Este 6 Nordeste 0 -- -- 43
2017-10-15 08:00:00 17.1 3 Norte 12 Norte 0 -- -- 43
2017-10-15 07:00:00 18.2 9 Nordeste 11 Nordeste 0 -- -- 41
2017-10-15 06:00:00 19.2 6 Este 15 Nordeste 0 -- -- 38
2017-10-15 05:00:00 19.7 6 Nordeste 11 Este 0 -- -- 37
2017-10-15 04:00:00 19.9 8 Este 11 Norte 0 -- -- 37
2017-10-15 03:00:00 20.2 6 Norte 10 Norte 0 -- -- 34
2017-10-15 02:00:00 21.5 0 Calma 6 Sur 0 -- -- 34
2017-10-15 01:00:00 22.6 0 Calma 10 Sudeste 0 -- -- 32
2017-10-15 00:00:00 23.7 4 Este 7 Sur 0 -- -- 31
2017-10-14 23:00:00 25.2 4 Oeste 8 Sudoeste 0 -- -- 30
2017-10-14 22:00:00 26.4 7 Sudoeste 12 Oeste 0 -- -- 28
2017-10-14 21:00:00 27.1 5 Sudoeste 12 Sur 0 -- -- 28
2017-10-14 20:00:00 29 6 Sur 11 Sur 0 -- -- 26
2017-10-14 19:00:00 31.4 8 Sur 15 Sur 0 -- -- 23
2017-10-14 18:00:00 32.6 7 Sur 12 Sur 0 -- -- 22
2017-10-14 17:00:00 32.1 5 Sudoeste 10 Sudoeste 0 -- -- 22
2017-10-14 16:00:00 32.4 4 Oeste 16 Sudoeste 0 -- -- 23
2017-10-14 15:00:00 31.4 5 Oeste 12 Norte 0 -- -- 24
2017-10-14 14:00:00 29.8 6 Norte 13 Nordeste 0 -- -- 27
2017-10-14 13:00:00 28.4 6 Norte 15 Norte 0 -- -- 28
2017-10-14 12:00:00 27 9 Nordeste 17 Nordeste 0 -- -- 29
2017-10-14 11:00:00 24 9 Nordeste 16 Nordeste 0 -- -- 32
2017-10-14 10:00:00 18.9 8 Nordeste 17 Nordeste 0 -- -- 39
2017-10-14 09:00:00 16.9 11 Norte 14 Norte 0 -- -- 41
2017-10-14 08:00:00 16.9 10 Norte 14 Nordeste 0 -- -- 41
2017-10-14 07:00:00 17.2 8 Norte 10 Norte 0 -- -- 39
2017-10-14 06:00:00 18.7 8 Nordeste 10 Norte 0 -- -- 36
2017-10-14 05:00:00 19 7 Norte 12 Norte 0 -- -- 35
2017-10-14 04:00:00 20.8 2 Noroeste 4 Sur 0 -- -- 32
2017-10-14 03:00:00 22 4 Sur 8 Sur 0 -- -- 33
2017-10-14 02:00:00 21.8 4 Sur 8 Sur 0 -- -- 31
2017-10-14 01:00:00 22.8 5 Sur 9 Sudoeste 0 -- -- 30
2017-10-14 00:00:00 24.1 8 Sudoeste 12 Sur 0 -- -- 28
2017-10-13 23:00:00 23.7 6 Sudoeste 8 Sudoeste 0 -- -- 29
2017-10-13 22:00:00 24.6 3 Sudoeste 8 Sur 0 -- -- 30
2017-10-13 21:00:00 25.6 4 Sudeste 6 Este 0 -- -- 27
2017-10-13 20:00:00 27.5 3 Noroeste 12 Norte 0 -- -- 26
2017-10-13 19:00:00 29.9 4 Noroeste 10 Noroeste 0 -- -- 23
2017-10-13 18:00:00 31.6 3 Noroeste 18 Oeste 0 -- -- 22
2017-10-13 17:00:00 32.7 11 Sudoeste 21 Sudoeste 0 -- -- 20
2017-10-13 16:00:00 31.8 10 Sudoeste 23 Sudoeste 0 -- -- 21
2017-10-13 15:00:00 31 9 Sudoeste 24 Sudoeste 0 -- -- 22
2017-10-13 14:00:00 30.8 9 Sur 19 Sudoeste 0 -- -- 23
2017-10-13 13:00:00 29 4 Sudoeste 11 Sudoeste 0 -- -- 26
2017-10-13 12:00:00 25.8 4 Norte 10 Nordeste 0 -- -- 32
2017-10-13 11:00:00 21.3 6 Norte 10 Norte 0 -- -- 40
2017-10-13 10:00:00 17.4 5 Nordeste 12 Nordeste 0 -- -- 45
2017-10-13 09:00:00 16.4 10 Nordeste 12 Norte 0 -- -- 45
2017-10-13 08:00:00 15.9 9 Norte 14 Norte 0 -- -- 46
2017-10-13 07:00:00 17.7 8 Norte 9 Norte 0 -- -- 41
2017-10-13 06:00:00 17.9 3 Noroeste 4 Sudoeste 0 -- -- 41
2017-10-13 05:00:00 19.1 2 Este 6 Nordeste 0 -- -- 38
2017-10-13 04:00:00 20.2 4 Nordeste 8 Nordeste 0 -- -- 37
2017-10-13 03:00:00 20.7 5 Nordeste 8 Nordeste 0 -- -- 37
2017-10-13 02:00:00 20.7 4 Nordeste 8 Nordeste 0 -- -- 37
2017-10-13 01:00:00 21.5 6 Norte 10 Norte 0 -- -- 35
2017-10-13 00:00:00 22.4 8 Norte 11 Nordeste 0 -- -- 33
2017-10-12 23:00:00 23.4 3 Noroeste 8 Nordeste 0 -- -- 32
2017-10-12 22:00:00 25.2 6 Nordeste 8 Nordeste 0 -- -- 30
2017-10-12 21:00:00 26.2 2 Oeste 6 Oeste 0 -- -- 29
2017-10-12 20:00:00 28.6 4 Sudoeste 8 Sudoeste 0 -- -- 27
2017-10-12 19:00:00 30.5 3 Sudeste 6 Oeste 0 -- -- 25
2017-10-12 18:00:00 30.6 4 Oeste 9 Oeste 0 -- -- 24
2017-10-12 17:00:00 33.2 3 Sudoeste 13 Oeste 0 -- -- 22
2017-10-12 16:00:00 31.1 3 Norte 12 Oeste 0 -- -- 24
2017-10-12 15:00:00 29 3 Este 10 Noroeste 0 -- -- 26
2017-10-12 14:00:00 28.3 2 Este 18 Noroeste 0 -- -- 26
2017-10-12 13:00:00 26.8 4 Norte 27 Noroeste 0 -- -- 29
2017-10-12 12:00:00 26.3 10 Nordeste 19 Nordeste 0 -- -- 28
2017-10-12 11:00:00 23 6 Nordeste 13 Nordeste 0 -- -- 34
2017-10-12 10:00:00 19.7 6 Nordeste 14 Norte 0 -- -- 39
2017-10-12 09:00:00 17.6 8 Nordeste 13 Nordeste 0 -- -- 39
2017-10-12 08:00:00 17.2 8 Nordeste 12 Norte 0 -- -- 40
2017-10-12 07:00:00 17.3 9 Norte 16 Norte 0 -- -- 39
2017-10-12 06:00:00 18.2 10 Norte 15 Norte 0 -- -- 37
2017-10-12 05:00:00 20 5 Norte 17 Nordeste 0 -- -- 35
2017-10-12 04:00:00 21 13 Nordeste 19 Nordeste 0 -- -- 34
2017-10-12 03:00:00 20.7 12 Nordeste 17 Nordeste 0 -- -- 35
2017-10-12 02:00:00 20.7 10 Norte 15 Nordeste 0 -- -- 33
2017-10-12 01:00:00 21.4 8 Nordeste 13 Norte 0 -- -- 33
2017-10-12 00:00:00 23.7 5 Sudoeste 13 Sudoeste 0 -- -- 30
2017-10-11 23:00:00 24.3 8 Sudoeste 11 Sudoeste 0 -- -- 30
2017-10-11 22:00:00 25 6 Sudoeste 9 Sudoeste 0 -- -- 28
2017-10-11 21:00:00 26.9 9 Sudoeste 13 Sur 0 -- -- 26
2017-10-11 20:00:00 29.2 3 Norte 6 Noroeste 0 -- -- 22
2017-10-11 19:00:00 32.2 4 Noroeste 15 Oeste 0 -- -- 20
2017-10-11 18:00:00 32.4 9 Oeste 20 Oeste 0 -- -- 19
2017-10-11 17:00:00 32.1 10 Oeste 21 Oeste 0 -- -- 20
2017-10-11 16:00:00 31.7 9 Sudoeste 20 Oeste 0 -- -- 21
2017-10-11 15:00:00 31.1 9 Sudoeste 18 Sudeste 0 -- -- 22
2017-10-11 14:00:00 29.8 3 Oeste 15 Nordeste 0 -- -- 24
2017-10-11 13:00:00 27.8 6 Nordeste 19 Nordeste 0 -- -- 29
2017-10-11 12:00:00 24.2 8 Norte 14 Nordeste 0 -- -- 35
2017-10-11 11:00:00 20.6 9 Norte 14 Norte 0 -- -- 42
2017-10-11 10:00:00 17.3 11 Norte 15 Norte 0 -- -- 47
2017-10-11 09:00:00 15.4 10 Norte 13 Norte 0 -- -- 50
2017-10-11 08:00:00 16.9 8 Nordeste 17 Nordeste 0 -- -- 47
2017-10-11 07:00:00 17.5 9 Nordeste 15 Este 0 -- -- 47
2017-10-11 06:00:00 17.4 10 Este 12 Nordeste 0 -- -- 46
2017-10-11 05:00:00 17.8 0 Calma 5 Norte 0 -- -- 48
2017-10-11 04:00:00 18.6 6 Norte 10 Norte 0 -- -- 46
2017-10-11 03:00:00 19.5 4 Sur 6 Sudoeste 0 -- -- 43
2017-10-11 02:00:00 21 4 Sudoeste 11 Sur 0 -- -- 42
2017-10-11 01:00:00 21.9 5 Sur 13 Sur 0 -- -- 41
2017-10-11 00:00:00 22.8 8 Sur 12 Sur 0 -- -- 40
2017-10-10 23:00:00 23.4 6 Sur 9 Sudoeste 0 -- -- 37
2017-10-10 22:00:00 24.3 6 Sur 15 Sur 0 -- -- 32
2017-10-10 21:00:00 25.6 2 Noroeste 10 Noroeste 0 -- -- 28
2017-10-10 20:00:00 28.4 4 Oeste 17 Oeste 0 -- -- 26
2017-10-10 19:00:00 31.1 4 Oeste 22 Sudoeste 0 -- -- 23
2017-10-10 18:00:00 31.6 5 Sur 16 Sur 0 -- -- 23
2017-10-10 17:00:00 31.4 6 Este 20 Sudoeste 0 -- -- 23
2017-10-10 16:00:00 31.2 6 Noroeste 19 Oeste 0 -- -- 23
2017-10-10 15:00:00 30.4 4 Oeste 11 Noroeste 0 -- -- 27
2017-10-10 14:00:00 28.2 6 Norte 13 Norte 0 -- -- 31
2017-10-10 13:00:00 26.4 6 Norte 14 Norte 0 -- -- 34
2017-10-10 12:00:00 24.2 6 Nordeste 14 Norte 0 -- -- 38
2017-10-10 11:00:00 21 9 Norte 13 Norte 0 -- -- 42
2017-10-10 10:00:00 17.1 6 Nordeste 13 Norte 0 -- -- 48
2017-10-10 09:00:00 14.8 11 Norte 14 Nordeste 0 -- -- 55
2017-10-10 08:00:00 16.2 5 Nordeste 8 Norte 0 -- -- 54
2017-10-10 07:00:00 17.2 7 Nordeste 10 Este 0 -- -- 52
2017-10-10 06:00:00 17.5 8 Nordeste 9 Nordeste 0 -- -- 53
2017-10-10 05:00:00 18 7 Norte 9 Norte 0 -- -- 51
2017-10-10 04:00:00 18.5 6 Norte 8 Norte 0 -- -- 48
2017-10-10 03:00:00 20.2 4 Sudoeste 12 Sur 0 -- -- 46
2017-10-10 02:00:00 20.8 8 Sur 14 Sur 0 -- -- 45
2017-10-10 01:00:00 20.9 8 Sur 10 Sur 0 -- -- 37
2017-10-10 00:00:00 21.4 8 Sudoeste 12 Sudoeste 0 -- -- 32
2017-10-09 23:00:00 23.1 4 Sur 6 Sur 0 -- -- 31
2017-10-09 22:00:00 24.1 3 Sudoeste 8 Sudoeste 0 -- -- 30
2017-10-09 21:00:00 26.2 5 Sudoeste 8 Sudoeste 0 -- -- 27
2017-10-09 20:00:00 28.4 6 Sudoeste 12 Sudoeste 0 -- -- 24
2017-10-09 19:00:00 31.3 6 Sudoeste 17 Sur 0 -- -- 20
2017-10-09 18:00:00 32.1 6 Sur 17 Sudoeste 0 -- -- 22
2017-10-09 17:00:00 31.7 3 Sudeste 23 Sudoeste 0 -- -- 24
2017-10-09 16:00:00 30.9 6 Oeste 17 Oeste 0 -- -- 24
2017-10-09 15:00:00 29.8 4 Sur 13 Sudoeste 0 -- -- 35
2017-10-09 14:00:00 27.7 5 Sur 11 Sur 0 -- -- 39
2017-10-09 13:00:00 25.3 4 Norte 9 Sur 0 -- -- 49
2017-10-09 12:00:00 23.3 3 Norte 7 Nordeste 0 -- -- 56
2017-10-09 11:00:00 21.2 4 Norte 8 Nordeste 0 -- -- 61
2017-10-09 10:00:00 18.2 4 Norte 5 Norte 0 -- -- 58
2017-10-09 09:00:00 16.2 4 Nordeste 6 Norte 0 -- -- 65
2017-10-09 08:00:00 16.5 3 Norte 4 Norte 0 -- -- 64
2017-10-09 07:00:00 17 0 Calma 4 Este 0 -- -- 63
2017-10-09 06:00:00 17.6 0 Calma 5 Sur 0 -- -- 60
2017-10-09 05:00:00 18.5 4 Sur 14 Sudoeste 0 -- -- 57
2017-10-09 04:00:00 19.5 6 Sudoeste 13 Sudoeste 0 -- -- 56
2017-10-09 03:00:00 19.3 6 Sudoeste 10 Sudoeste 0 -- -- 53
2017-10-09 02:00:00 20.2 4 Sudoeste 6 Sudoeste 0 -- -- 49
2017-10-09 01:00:00 21.1 4 Sudoeste 7 Sur 0 -- -- 48
2017-10-09 00:00:00 22.3 5 Sur 6 Sur 0 -- -- 45
2017-10-08 23:00:00 23.1 2 Sudoeste 3 Sudoeste 0 -- -- 42
2017-10-08 22:00:00 24.4 0 Calma 7 Sudoeste 0 -- -- 42
2017-10-08 21:00:00 25.8 5 Sudoeste 9 Sudoeste 0 -- -- 40
2017-10-08 20:00:00 27.7 8 Sudoeste 17 Sur 0 -- -- 36
2017-10-08 19:00:00 30.5 8 Sudoeste 15 Sur 0 -- -- 31
2017-10-08 18:00:00 31 10 Sur 17 Sudoeste 0 -- -- 31
2017-10-08 17:00:00 30.4 7 Oeste 16 Oeste 0 -- -- 34
2017-10-08 16:00:00 30.5 4 Sudeste 13 Sur 0 -- -- 34
2017-10-08 15:00:00 28.8 9 Sudoeste 14 Sudoeste 0 -- -- 38
2017-10-08 14:00:00 27.7 4 Oeste 13 Oeste 0 -- -- 41
2017-10-08 13:00:00 26.6 4 Este 12 Norte 0 -- -- 45
2017-10-08 12:00:00 23.8 4 Norte 12 Norte 0 -- -- 54
2017-10-08 11:00:00 21.9 7 Norte 11 Norte 0 -- -- 60
2017-10-08 10:00:00 20 0 Calma 4 Este 0 -- -- 61
2017-10-08 09:00:00 17.6 3 Nordeste 9 Este 0 -- -- 71
2017-10-08 08:00:00 17.6 6 Nordeste 8 Nordeste 0 -- -- 70
2017-10-08 07:00:00 17.7 3 Nordeste 6 Nordeste 0 -- -- 69
2017-10-08 06:00:00 17.9 4 Nordeste 6 Norte 0 -- -- 68
2017-10-08 05:00:00 18 5 Norte 7 Norte 0 -- -- 64
2017-10-08 04:00:00 18.8 4 Norte 6 Nordeste 0 -- -- 62
2017-10-08 03:00:00 19.6 2 Noroeste 8 Norte 0 -- -- 62
2017-10-08 02:00:00 20.7 2 Norte 8 Oeste 0 -- -- 58
2017-10-08 01:00:00 21.6 3 Sudoeste 8 Sudoeste 0 -- -- 56
2017-10-08 00:00:00 22.6 4 Sudoeste 13 Sudoeste 0 -- -- 53
2017-10-07 23:00:00 23.7 8 Sudoeste 22 Sudoeste 0 -- -- 52
2017-10-07 22:00:00 24.4 10 Sudoeste 18 Sudoeste 0 -- -- 49
2017-10-07 21:00:00 25.7 9 Sudoeste 20 Sudoeste 0 -- -- 43
2017-10-07 20:00:00 27.8 14 Sudoeste 26 Sur 0 -- -- 39
2017-10-07 19:00:00 30.8 17 Sur 28 Sur 0 -- -- 33
2017-10-07 18:00:00 32.4 12 Sudoeste 25 Sudoeste 0 -- -- 29
2017-10-07 17:00:00 32.6 13 Sur 27 Sur 0 -- -- 31
2017-10-07 16:00:00 32.3 6 Sudoeste 35 Oeste 0 -- -- 30
2017-10-07 15:00:00 31.4 8 Sudoeste 19 Sur 0 -- -- 27
2017-10-07 14:00:00 31.2 6 Sur 14 Sur 0 -- -- 25
2017-10-07 13:00:00 29.1 5 Este 18 Este 0 -- -- 24
2017-10-07 12:00:00 26.5 10 Nordeste 19 Nordeste 0 -- -- 27
2017-10-07 11:00:00 23.6 9 Nordeste 19 Este 0 -- -- 34
2017-10-07 10:00:00 19.6 8 Nordeste 13 Nordeste 0 -- -- 43
2017-10-07 09:00:00 16.2 9 Norte 14 Norte 0 -- -- 51
2017-10-07 08:00:00 18.1 6 Nordeste 10 Nordeste 0 -- -- 49
2017-10-07 07:00:00 19.3 8 Nordeste 14 Nordeste 0 -- -- 47
2017-10-07 06:00:00 18.5 8 Nordeste 12 Norte 0 -- -- 50
2017-10-07 05:00:00 20 5 Este 12 Norte 0 -- -- 50
2017-10-07 04:00:00 20.6 3 Sur 5 Sur 0 -- -- 48
2017-10-07 03:00:00 22.2 4 Sur 6 Sur 0 -- -- 45
2017-10-07 02:00:00 22.5 6 Este 12 Norte 0 -- -- 45
2017-10-07 01:00:00 24 9 Sur 14 Sudoeste 0 -- -- 39
2017-10-07 00:00:00 25.2 9 Sur 12 Sudoeste 0 -- -- 36
2017-10-06 23:00:00 25.4 6 Sudoeste 9 Sur 0 -- -- 34
2017-10-06 22:00:00 26.6 4 Sudoeste 7 Sudoeste 0 -- -- 31
2017-10-06 21:00:00 28.8 6 Sur 10 Sudoeste 0 -- -- 29
2017-10-06 20:00:00 30.9 8 Sudoeste 12 Sudoeste 0 -- -- 27
2017-10-06 19:00:00 34.1 4 Sur 10 Sudoeste 0 -- -- 23
2017-10-06 18:00:00 33.8 3 Sudoeste 14 Sur 0 -- -- 24
2017-10-06 17:00:00 33.5 5 Sur 16 Sudoeste 0 -- -- 26
2017-10-06 16:00:00 32.3 7 Oeste 24 Sudeste 0 -- -- 28
2017-10-06 15:00:00 31.3 6 Oeste 17 Sudoeste 0 -- -- 30
2017-10-06 14:00:00 29.5 6 Sudoeste 12 Sudoeste 0 -- -- 33
2017-10-06 13:00:00 28.1 4 Sudeste 10 Sur 0 -- -- 36
2017-10-06 12:00:00 25.6 5 Nordeste 10 Nordeste 0 -- -- 44
2017-10-06 11:00:00 22.3 2 Oeste 5 Oeste 0 -- -- 50
2017-10-06 10:00:00 18.9 3 Norte 6 Norte 0 -- -- 56
2017-10-06 09:00:00 16.7 4 Nordeste 6 Nordeste 0 -- -- 63
2017-10-06 08:00:00 17.2 4 Nordeste 9 Nordeste 0 -- -- 65
2017-10-06 07:00:00 17.1 6 Nordeste 9 Nordeste 0 -- -- 67
2017-10-06 06:00:00 17.1 3 Este 4 Este 0 -- -- 64
2017-10-06 05:00:00 17.9 2 Este 4 Sudeste 0 -- -- 63
2017-10-06 04:00:00 18.6 4 Este 6 Este 0 -- -- 61
2017-10-06 03:00:00 19.4 0 Calma 9 Norte 0 -- -- 59
2017-10-06 02:00:00 19.8 5 Norte 7 Norte 0 -- -- 58
2017-10-06 01:00:00 21.5 6 Sur 10 Sudoeste 0 -- -- 57
2017-10-06 00:00:00 22.4 8 Sudoeste 15 Sudoeste 0 -- -- 54
2017-10-05 23:00:00 23.6 9 Sudoeste 15 Sudoeste 0 -- -- 51
2017-10-05 22:00:00 24.9 8 Sudoeste 14 Sudoeste 0 -- -- 47
2017-10-05 21:00:00 26.8 8 Sudoeste 13 Sur 0 -- -- 30
2017-10-05 20:00:00 30 4 Sur 12 Sudeste 0 -- -- 22
2017-10-05 19:00:00 31.9 7 Sudeste 21 Este 0 -- -- 21
2017-10-05 18:00:00 32.1 8 Este 22 Este 0 -- -- 21
2017-10-05 17:00:00 31.7 11 Nordeste 24 Nordeste 0 -- -- 21
2017-10-05 16:00:00 31.1 9 Nordeste 22 Nordeste 0 -- -- 26
2017-10-05 15:00:00 30.3 10 Nordeste 25 Nordeste 0 -- -- 33
2017-10-05 14:00:00 29.2 12 Nordeste 26 Nordeste 0 -- -- 38
2017-10-05 13:00:00 28 9 Nordeste 17 Nordeste 0 -- -- 40
2017-10-05 12:00:00 25.6 9 Nordeste 18 Nordeste 0 -- -- 51
2017-10-05 11:00:00 23.6 8 Norte 12 Norte 0 -- -- 56
2017-10-05 10:00:00 22.3 5 Nordeste 10 Este 0 -- -- 60
2017-10-05 09:00:00 18.2 5 Nordeste 9 Nordeste 0 -- -- 73
2017-10-05 08:00:00 18 6 Nordeste 7 Nordeste 0 -- -- 72
2017-10-05 07:00:00 18.4 5 Nordeste 8 Nordeste 0 -- -- 71
2017-10-05 06:00:00 18.6 6 Este 8 Este 0 -- -- 69
2017-10-05 05:00:00 19.3 3 Nordeste 5 Este 0 -- -- 63
2017-10-05 04:00:00 19.8 0 Calma 4 Norte 0 -- -- 65
2017-10-05 03:00:00 20.7 2 Norte 9 Norte 0 -- -- 63
2017-10-05 02:00:00 21.4 3 Norte 13 Noroeste 0 -- -- 60
2017-10-05 01:00:00 21.8 6 Norte 12 Norte 0 -- -- 60
2017-10-05 00:00:00 22.4 4 Norte 11 Norte 0 -- -- 54
2017-10-04 23:00:00 23.6 4 Sudoeste 15 Sudoeste 0 -- -- 56
2017-10-04 22:00:00 24.4 8 Sudoeste 24 Sudoeste 0 -- -- 55
2017-10-04 21:00:00 25.5 13 Sudoeste 24 Sudoeste 0 -- -- 53
2017-10-04 20:00:00 27.5 14 Sudoeste 28 Sudoeste 0 -- -- 47
2017-10-04 19:00:00 30 16 Sudoeste 30 Sudoeste 0 -- -- 42
2017-10-04 18:00:00 31.9 14 Sudoeste 26 Sudoeste 0 -- -- 39
2017-10-04 17:00:00 31.9 6 Oeste 17 Oeste 0 -- -- 35
2017-10-04 16:00:00 31.4 12 Sudoeste 21 Sudoeste 0 -- -- 36
2017-10-04 15:00:00 30.8 3 Sudoeste 19 Sudoeste 0 -- -- 37
2017-10-04 14:00:00 29.9 5 Sudeste 14 Sur 0 -- -- 40
2017-10-04 13:00:00 28.5 5 Sudeste 16 Este 0 -- -- 43
2017-10-04 12:00:00 26.6 9 Este 18 Este 0 -- -- 48
2017-10-04 11:00:00 24.1 4 Nordeste 10 Nordeste 0 -- -- 53
2017-10-04 10:00:00 22.3 5 Nordeste 10 Este 0 -- -- 57
2017-10-04 09:00:00 18.8 6 Nordeste 9 Nordeste 0 -- -- 66
2017-10-04 08:00:00 18.7 4 Nordeste 6 Nordeste 0 -- -- 65
2017-10-04 07:00:00 18.8 5 Nordeste 7 Norte 0 -- -- 64
2017-10-04 06:00:00 19.4 2 Sudeste 8 Este 0 -- -- 63
2017-10-04 05:00:00 19.9 0 Calma 4 Oeste 0 -- -- 63
2017-10-04 04:00:00 20.8 2 Oeste 6 Oeste 0 -- -- 60
2017-10-04 03:00:00 21.5 3 Oeste 5 Noroeste 0 -- -- 60
2017-10-04 02:00:00 21.8 3 Norte 10 Sudoeste 0 -- -- 59
2017-10-04 01:00:00 22.9 6 Sudoeste 10 Sur 0 -- -- 57
2017-10-04 00:00:00 23.8 8 Sudoeste 15 Sudoeste 0 -- -- 55
2017-10-03 23:00:00 24.5 9 Sudoeste 17 Sudoeste 0 -- -- 52
2017-10-03 22:00:00 25.7 9 Sudoeste 26 Sur 0 -- -- 49
2017-10-03 21:00:00 28 9 Sudoeste 17 Sudoeste 0 -- -- 39
2017-10-03 20:00:00 29.9 9 Sudoeste 17 Sudoeste 0 -- -- 35
2017-10-03 19:00:00 32.1 10 Sudoeste 20 Sudoeste 0 -- -- 32
2017-10-03 18:00:00 32.6 4 Sudoeste 15 Oeste 0 -- -- 31
2017-10-03 17:00:00 32 3 Sur 15 Oeste 0 -- -- 33
2017-10-03 16:00:00 31 8 Norte 18 Norte 0 -- -- 35
2017-10-03 15:00:00 30.4 4 Sudoeste 14 Nordeste 0 -- -- 37
2017-10-03 14:00:00 28.8 3 Sudoeste 11 Nordeste 0 -- -- 41
2017-10-03 13:00:00 26.8 5 Norte 16 Nordeste 0 -- -- 48
2017-10-03 12:00:00 25.1 4 Nordeste 12 Norte 0 -- -- 53
2017-10-03 11:00:00 23.3 3 Norte 7 Norte 0 -- -- 58
2017-10-03 10:00:00 20.6 4 Norte 7 Nordeste 0 -- -- 61
2017-10-03 09:00:00 17.9 6 Este 7 Nordeste 0 -- -- 70
2017-10-03 08:00:00 17.5 3 Este 5 Este 0 -- -- 71
2017-10-03 07:00:00 17.9 3 Este 5 Noroeste 0 -- -- 69
2017-10-03 06:00:00 18.1 3 Noroeste 6 Noroeste 0 -- -- 69
2017-10-03 05:00:00 18.9 3 Este 6 Oeste 0 -- -- 65
2017-10-03 04:00:00 19.8 5 Oeste 8 Oeste 0 -- -- 64
2017-10-03 03:00:00 20.4 4 Oeste 8 Oeste 0 -- -- 64
2017-10-03 02:00:00 21.2 5 Sudoeste 13 Sudoeste 0 -- -- 62
2017-10-03 01:00:00 22.4 10 Sudoeste 17 Sudoeste 0 -- -- 60
2017-10-03 00:00:00 23.3 9 Sudoeste 16 Sudoeste 0 -- -- 57
2017-10-02 23:00:00 24.5 8 Sudoeste 19 Sudoeste 0 -- -- 53
2017-10-02 22:00:00 26.3 10 Oeste 18 Sudoeste 0 -- -- 46
2017-10-02 21:00:00 29 7 Norte 12 Norte 0 -- -- 34
2017-10-02 20:00:00 31.2 5 Nordeste 20 Nordeste 0 -- -- 31
2017-10-02 19:00:00 32.4 9 Nordeste 25 Norte 0 -- -- 30
2017-10-02 18:00:00 32.7 10 Nordeste 26 Nordeste 0 -- -- 29
2017-10-02 17:00:00 32.2 8 Nordeste 29 Este 0 -- -- 31
2017-10-02 16:00:00 31.6 17 Nordeste 33 Nordeste 0 -- -- 33
2017-10-02 15:00:00 31 15 Nordeste 29 Este 0 -- -- 34
2017-10-02 14:00:00 29.6 19 Este 35 Este 0 -- -- 36
2017-10-02 13:00:00 28.4 19 Nordeste 31 Nordeste 0 -- -- 39
2017-10-02 12:00:00 26.9 16 Nordeste 24 Nordeste 0 -- -- 46
2017-10-02 11:00:00 24.9 8 Nordeste 15 Nordeste 0 -- -- 50
2017-10-02 10:00:00 21.2 5 Norte 8 Nordeste 0 -- -- 50
2017-10-02 09:00:00 18.2 0 Calma 5 Sur 0 -- -- 53
2017-10-02 08:00:00 18.3 0 Calma 4 Sudeste 0 -- -- 52
2017-10-02 07:00:00 19.2 0 Calma 5 Nordeste 0 -- -- 50
2017-10-02 06:00:00 19.7 4 Norte 6 Nordeste 0 -- -- 50
2017-10-02 05:00:00 20.7 3 Norte 8 Nordeste 0 -- -- 47
2017-10-02 04:00:00 21.4 7 Este 9 Nordeste 0 -- -- 46
2017-10-02 03:00:00 22.1 7 Nordeste 11 Norte 0 -- -- 46
2017-10-02 02:00:00 22.3 7 Norte 10 Norte 0 -- -- 44
2017-10-02 01:00:00 23.8 3 Sudoeste 19 Nordeste 0 -- -- 43
2017-10-02 00:00:00 25.3 12 Nordeste 15 Nordeste 0 -- -- 40
2017-10-01 23:00:00 26.3 10 Este 24 Nordeste 0 -- -- 39
2017-10-01 22:00:00 27.4 15 Nordeste 28 Nordeste 0 -- -- 36
2017-10-01 21:00:00 29 17 Nordeste 27 Nordeste 0 -- -- 33
2017-10-01 20:00:00 30.5 17 Nordeste 24 Nordeste 0 -- -- 30
2017-10-01 19:00:00 31.6 12 Nordeste 21 Nordeste 0 -- -- 28
2017-10-01 18:00:00 32.1 8 Norte 18 Este 0 -- -- 27
2017-10-01 17:00:00 32 7 Sudeste 21 Este 0 -- -- 28
2017-10-01 16:00:00 32.1 6 Nordeste 18 Nordeste 0 -- -- 28
2017-10-01 15:00:00 31.1 6 Este 16 Nordeste 0 -- -- 31
2017-10-01 14:00:00 29.6 5 Nordeste 15 Norte 0 -- -- 33
2017-10-01 13:00:00 27.4 4 Nordeste 10 Norte 0 -- -- 38
2017-10-01 12:00:00 25.9 3 Nordeste 8 Noroeste 0 -- -- 42
2017-10-01 11:00:00 22.8 0 Calma 3 Este 0 -- -- 51
2017-10-01 10:00:00 20.2 0 Calma 4 Este 0 -- -- 58
2017-10-01 09:00:00 18.2 0 Calma 2 Este 0 -- -- 61
2017-10-01 08:00:00 18.3 0 Calma 5 Este 0 -- -- 59
2017-10-01 07:00:00 19.1 0 Calma 4 Este 0 -- -- 59
2017-10-01 06:00:00 19.6 0 Calma 5 Sur 0 -- -- 56
2017-10-01 05:00:00 20.8 5 Sur 8 Sudoeste 0 -- -- 56
2017-10-01 04:00:00 21.3 2 Sudoeste 7 Sur 0 -- -- 52
2017-10-01 03:00:00 22.2 5 Sur 7 Sur 0 -- -- 50
2017-10-01 02:00:00 22.6 5 Sur 8 Sudoeste 0 -- -- 47
2017-10-01 01:00:00 22.9 5 Sudoeste 8 Sur 0 -- -- 46
2017-10-01 00:00:00 23.6 4 Sur 7 Sudeste 0 -- -- 45
2017-09-30 23:00:00 24.8 0 Calma 7 Sudoeste 0 -- -- 43
2017-09-30 22:00:00 26 4 Sudoeste 8 Sudoeste 0 -- -- 41
2017-09-30 21:00:00 27.5 6 Sur 11 Sudoeste 0 -- -- 39
2017-09-30 20:00:00 29.3 7 Sudoeste 15 Sudoeste 0 -- -- 36
2017-09-30 19:00:00 30.9 9 Sur 14 Sur 0 -- -- 33
2017-09-30 18:00:00 31.1 5 Sur 19 Oeste 0 -- -- 34
2017-09-30 17:00:00 30.2 7 Oeste 16 Oeste 0 -- -- 36
2017-09-30 16:00:00 29.9 7 Sur 16 Sudeste 0 -- -- 38
2017-09-30 15:00:00 28.3 5 Sudoeste 14 Sudoeste 0 -- -- 42
2017-09-30 14:00:00 26.6 8 Oeste 17 Sudoeste 0 -- -- 47
2017-09-30 13:00:00 25.2 4 Este 13 Sudoeste 0 -- -- 50
2017-09-30 12:00:00 24.4 6 Sur 12 Sudoeste 0 -- -- 53
2017-09-30 11:00:00 22.9 0 Calma 6 Este 0 -- -- 58
2017-09-30 10:00:00 20.8 3 Sudeste 9 Sudeste 0 -- -- 63
2017-09-30 09:00:00 16.8 5 Sudeste 7 Este 0 -- -- 68
2017-09-30 08:00:00 17.4 5 Oeste 8 Oeste 0 -- -- 72
2017-09-30 07:00:00 18 3 Sur 6 Sur 0 -- -- 69
2017-09-30 06:00:00 18.8 5 Sudoeste 11 Sudoeste 0 -- -- 69
2017-09-30 05:00:00 19.3 7 Sudoeste 12 Sudoeste 0 -- -- 67
2017-09-30 04:00:00 20.2 6 Sudoeste 13 Sur 0 -- -- 64
2017-09-30 03:00:00 20.8 9 Sur 15 Sudoeste 0 -- -- 62
2017-09-30 02:00:00 21.4 8 Sur 19 Sudoeste 0 -- -- 60
2017-09-30 01:00:00 22.4 11 Sudoeste 18 Sudoeste 0 -- -- 59
2017-09-30 00:00:00 23.1 6 Sudoeste 13 Sudoeste 0 -- -- 55
2017-09-29 23:00:00 24 7 Sudoeste 13 Sudoeste 0 -- -- 52
2017-09-29 22:00:00 25.3 9 Sudoeste 15 Sur 0 -- -- 46
2017-09-29 21:00:00 27.1 9 Sudoeste 14 Sudoeste 0 -- -- 41
2017-09-29 20:00:00 28.9 6 Sudoeste 12 Oeste 0 -- -- 37
2017-09-29 19:00:00 31 6 Oeste 19 Oeste 0 -- -- 33
2017-09-29 18:00:00 30.8 10 Sudoeste 18 Sudoeste 0 -- -- 34
2017-09-29 17:00:00 30.9 7 Sudoeste 18 Sudoeste 0 -- -- 35
2017-09-29 16:00:00 30.3 6 Sudoeste 19 Oeste 0 -- -- 36
2017-09-29 15:00:00 29.3 7 Sur 14 Sudeste 0 -- -- 39
2017-09-29 14:00:00 27.9 5 Sudoeste 14 Este 0 -- -- 42
2017-09-29 13:00:00 25.9 9 Oeste 16 Sudoeste 0 -- -- 48
2017-09-29 12:00:00 25 5 Sudeste 10 Sudeste 0 -- -- 55
2017-09-29 11:00:00 23.6 3 Nordeste 8 Sudeste 0 -- -- 60
2017-09-29 10:00:00 21.3 0 Calma 3 Norte 0 -- -- 69
2017-09-29 09:00:00 19.3 3 Nordeste 4 Nordeste 0 -- -- 70
2017-09-29 08:00:00 19.4 0 Calma 4 Sudoeste 0 -- -- 69
2017-09-29 07:00:00 19.6 3 Sudoeste 6 Sudoeste 0 -- -- 71
2017-09-29 06:00:00 19.8 4 Oeste 12 Oeste 0 -- -- 69
2017-09-29 05:00:00 20.3 9 Oeste 16 Oeste 0 -- -- 67
2017-09-29 04:00:00 20.9 12 Oeste 21 Oeste 0 -- -- 66
2017-09-29 03:00:00 21.5 15 Oeste 23 Oeste 0 -- -- 64
2017-09-29 02:00:00 22 16 Oeste 22 Oeste 0 -- -- 63
2017-09-29 01:00:00 22.6 12 Sudoeste 22 Sudoeste 0 -- -- 58
2017-09-29 00:00:00 23.4 13 Sudoeste 26 Sur 0 -- -- 53
2017-09-28 23:00:00 24.3 10 Sudoeste 24 Sudoeste 0 -- -- 43
2017-09-28 22:00:00 25.5 13 Sudoeste 24 Sudoeste 0 -- -- 43
2017-09-28 21:00:00 26.7 9 Sudoeste 22 Sudoeste 0 -- -- 43
2017-09-28 20:00:00 28.1 9 Oeste 14 Sur 0 -- -- 37
2017-09-28 19:00:00 28.6 7 Sudoeste 14 Sur 0 -- -- 36
2017-09-28 18:00:00 29.2 6 Sur 14 Sudoeste 0 -- -- 36
2017-09-28 17:00:00 29.8 8 Sur 17 Sur 0 -- -- 36
2017-09-28 16:00:00 29.4 8 Nordeste 15 Nordeste 0 -- -- 36
2017-09-28 15:00:00 28.7 5 Norte 14 Este 0 -- -- 40
2017-09-28 14:00:00 27.3 5 Sudoeste 16 Este 0 -- -- 44
2017-09-28 13:00:00 27.2 7 Nordeste 16 Nordeste 0 -- -- 45
2017-09-28 12:00:00 25.5 6 Nordeste 12 Norte 0 -- -- 51
2017-09-28 11:00:00 24.3 4 Norte 8 Norte 0 -- -- 55
2017-09-28 10:00:00 20.4 0 Calma 3 Este 0 -- -- 64
2017-09-28 09:00:00 19.4 2 Este 3 Nordeste 0 -- -- 65
2017-09-28 08:00:00 19.6 2 Nordeste 5 Este 0 -- -- 68
2017-09-28 07:00:00 19.2 0 Calma 6 Oeste 0 -- -- 66
2017-09-28 06:00:00 19.5 6 Sudoeste 10 Sur 0 -- -- 65
2017-09-28 05:00:00 20.5 5 Sudoeste 8 Sudoeste 0 -- -- 66
2017-09-28 04:00:00 21.4 3 Este 5 Nordeste 0 -- -- 60
2017-09-28 03:00:00 21.3 3 Este 5 Este 0 -- -- 63
2017-09-28 02:00:00 21.5 4 Sur 6 Sudoeste 0 -- -- 65
2017-09-28 01:00:00 21.8 4 Sur 11 Sudoeste 0 -- -- 62
2017-09-28 00:00:00 22.4 7 Sudoeste 13 Sudoeste 0 -- -- 58
2017-09-27 23:00:00 23.6 5 Sudoeste 9 Oeste 0 -- -- 52
2017-09-27 22:00:00 24.3 7 Oeste 16 Oeste 0 -- -- 49
2017-09-27 21:00:00 25.1 8 Oeste 17 Oeste 0 -- -- 47
2017-09-27 20:00:00 25.7 7 Oeste 14 Oeste 0 -- -- 41
2017-09-27 19:00:00 26.4 6 Noroeste 21 Oeste 0 -- -- 39
2017-09-27 18:00:00 26.9 11 Oeste 29 Oeste 0 -- -- 38
2017-09-27 17:00:00 27.6 6 Este 14 Este 0 -- -- 37
2017-09-27 16:00:00 27.5 6 Nordeste 12 Este 0 -- -- 37
2017-09-27 15:00:00 26.1 4 Sudeste 10 Sudeste 0 -- -- 40
2017-09-27 14:00:00 25.2 3 Sur 11 Este 0 -- -- 41
2017-09-27 13:00:00 24.4 4 Nordeste 12 Noroeste 0 -- -- 37
2017-09-27 12:00:00 23.3 5 Norte 16 Nordeste 0 -- -- 33
2017-09-27 11:00:00 22.1 12 Nordeste 19 Nordeste 0 -- -- 33
2017-09-27 10:00:00 19.4 9 Nordeste 17 Nordeste 0 -- -- 34
2017-09-27 09:00:00 16.4 7 Nordeste 10 Nordeste 0 -- -- 39
2017-09-27 08:00:00 15.7 8 Nordeste 12 Nordeste 0 -- -- 39
2017-09-27 07:00:00 15.8 7 Nordeste 9 Nordeste 0 -- -- 40
2017-09-27 06:00:00 16 0 Calma 6 Sudoeste 0 -- -- 39
2017-09-27 05:00:00 16.9 5 Sudoeste 6 Sudoeste 0 -- -- 38
2017-09-27 04:00:00 17.8 3 Oeste 9 Sur 0 -- -- 36
2017-09-27 03:00:00 18.4 5 Sur 12 Sur 0 -- -- 36
2017-09-27 02:00:00 19.3 10 Sur 14 Sur 0 -- -- 34
2017-09-27 01:00:00 20.5 8 Sur 16 Sur 0 -- -- 31
2017-09-27 00:00:00 21.1 11 Sudoeste 17 Sudoeste 0 -- -- 29
2017-09-26 23:00:00 22.3 9 Sudoeste 22 Sudoeste 0 -- -- 28
2017-09-26 22:00:00 24.4 11 Sudoeste 24 Sudoeste 0 -- -- 25
2017-09-26 21:00:00 26.1 5 Sudoeste 10 Sur 0 -- -- 23
2017-09-26 20:00:00 28.5 9 Sudoeste 21 Sudoeste 0 -- -- 22
2017-09-26 19:00:00 31 13 Sudoeste 20 Sur 0 -- -- 21
2017-09-26 18:00:00 31.2 8 Sudoeste 19 Sudoeste 0 -- -- 20
2017-09-26 17:00:00 30.8 6 Sudoeste 18 Sudoeste 0 -- -- 20
2017-09-26 16:00:00 30 8 Oeste 23 Oeste 0 -- -- 21
2017-09-26 15:00:00 28.9 6 Noroeste 19 Oeste 0 -- -- 22
2017-09-26 14:00:00 28.5 5 Sur 17 Sudoeste 0 -- -- 27
2017-09-26 13:00:00 26.6 3 Noroeste 11 Oeste 0 -- -- 31
2017-09-26 12:00:00 24.9 2 Sudoeste 7 Sur 0 -- -- 36
2017-09-26 11:00:00 22.1 2 Norte 4 Norte 0 -- -- 46
2017-09-26 10:00:00 19.5 0 Calma 4 Nordeste 0 -- -- 54
2017-09-26 09:00:00 15.3 0 Calma 4 Oeste 0 -- -- 67
2017-09-26 08:00:00 15.1 0 Calma 4 Sur 0 -- -- 66
2017-09-26 07:00:00 15.9 3 Sudeste 4 Sur 0 -- -- 65
2017-09-26 06:00:00 16.9 2 Sudeste 8 Sudoeste 0 -- -- 62
2017-09-26 05:00:00 17.8 4 Sudoeste 7 Sudoeste 0 -- -- 60
2017-09-26 04:00:00 18.4 5 Sudoeste 9 Sudoeste 0 -- -- 52
2017-09-26 03:00:00 19.6 6 Sur 8 Sur 0 -- -- 49
2017-09-26 02:00:00 20.4 4 Sur 13 Sudoeste 0 -- -- 38
2017-09-26 01:00:00 21.5 6 Sudoeste 8 Sudoeste 0 -- -- 33
2017-09-26 00:00:00 22.7 3 Oeste 6 Nordeste 0 -- -- 32
2017-09-25 23:00:00 24.4 3 Nordeste 20 Oeste 0 -- -- 29
2017-09-25 22:00:00 26.7 13 Oeste 21 Oeste 0 -- -- 28
2017-09-25 21:00:00 27.5 7 Sudoeste 17 Sudoeste 0 -- -- 31
2017-09-25 20:00:00 30.3 12 Sudoeste 25 Sudoeste 0 -- -- 28
2017-09-25 19:00:00 32.1 13 Sudoeste 25 Sudoeste 0 -- -- 26
2017-09-25 18:00:00 32.2 15 Sudoeste 28 Sur 0 -- -- 25
2017-09-25 17:00:00 32 14 Sudoeste 30 Sudoeste 0 -- -- 22
2017-09-25 16:00:00 31.4 15 Sudoeste 34 Oeste 0 -- -- 23
2017-09-25 15:00:00 30.6 13 Sudoeste 25 Sudoeste 0 -- -- 29
2017-09-25 14:00:00 29.2 11 Sudoeste 19 Sudoeste 0 -- -- 31
2017-09-25 13:00:00 27.3 6 Sur 14 Oeste 0 -- -- 37
2017-09-25 12:00:00 24.7 8 Sur 13 Sudoeste 0 -- -- 50
2017-09-25 11:00:00 22.4 4 Sudoeste 8 Oeste 0 -- -- 58
2017-09-25 10:00:00 20.4 2 Sur 8 Sur 0 -- -- 65
2017-09-25 09:00:00 17.9 0 Calma 3 Nordeste 0 -- -- 69
2017-09-25 08:00:00 17.5 2 Oeste 5 Oeste 0 -- -- 71
2017-09-25 07:00:00 18.4 3 Sudoeste 6 Sudoeste 0 -- -- 67
2017-09-25 06:00:00 19.5 6 Sur 12 Sudoeste 0 -- -- 65
2017-09-25 05:00:00 20 4 Sudoeste 15 Sudoeste 0 -- -- 63
2017-09-25 04:00:00 20.8 9 Sudoeste 20 Sur 0 -- -- 60
2017-09-25 03:00:00 21.1 9 Sudoeste 15 Sudoeste 0 -- -- 59
2017-09-25 02:00:00 21.8 10 Sudoeste 15 Sudoeste 0 -- -- 55
2017-09-25 01:00:00 22.3 8 Sudoeste 13 Sur 0 -- -- 49
2017-09-25 00:00:00 23.1 5 Sudoeste 10 Sudoeste 0 -- -- 45
2017-09-24 23:00:00 24.5 6 Sudoeste 10 Sudoeste 0 -- -- 39
2017-09-24 22:00:00 26.1 5 Oeste 14 Oeste 0 -- -- 37
2017-09-24 21:00:00 26.8 6 Oeste 14 Sudoeste 0 -- -- 34
2017-09-24 20:00:00 29.6 10 Sudoeste 24 Oeste 0 -- -- 30
2017-09-24 19:00:00 31.4 10 Sudoeste 23 Oeste 0 -- -- 30
2017-09-24 18:00:00 31.5 8 Oeste 21 Oeste 0 -- -- 30
2017-09-24 17:00:00 32.1 6 Sudoeste 19 Oeste 0 -- -- 30
2017-09-24 16:00:00 31 9 Oeste 27 Noroeste 0 -- -- 33
2017-09-24 15:00:00 30.2 5 Sur 14 Sudoeste 0 -- -- 35
2017-09-24 14:00:00 28.5 3 Este 8 Oeste 0 -- -- 43
2017-09-24 13:00:00 26.3 5 Nordeste 9 Norte 0 -- -- 49
2017-09-24 12:00:00 24.7 4 Norte 10 Norte 0 -- -- 54
2017-09-24 11:00:00 23.1 3 Nordeste 10 Nordeste 0 -- -- 58
2017-09-24 10:00:00 21.3 4 Este 8 Este 0 -- -- 65
2017-09-24 09:00:00 17.9 5 Este 7 Este 0 -- -- 71
2017-09-24 08:00:00 17.3 5 Este 7 Este 0 -- -- 71
2017-09-24 07:00:00 18.1 3 Oeste 6 Oeste 0 -- -- 68
2017-09-24 06:00:00 18.6 0 Calma 10 Sudoeste 0 -- -- 72
2017-09-24 05:00:00 19.4 4 Oeste 12 Sur 0 -- -- 66
2017-09-24 04:00:00 20.4 6 Sudoeste 11 Sudoeste 0 -- -- 65
2017-09-24 03:00:00 21 7 Sudoeste 17 Sudoeste 0 -- -- 60
2017-09-24 02:00:00 21.9 10 Sudoeste 22 Sudoeste 0 -- -- 56
2017-09-24 01:00:00 22.2 7 Sudoeste 12 Sudoeste 0 -- -- 52
2017-09-24 00:00:00 22.4 8 Sudoeste 10 Sudoeste 0 -- -- 49
2017-09-23 23:00:00 24.3 6 Sudoeste 9 Sudoeste 0 -- -- 45
2017-09-23 22:00:00 25.2 3 Sudoeste 11 Sudoeste 0 -- -- 41
2017-09-23 21:00:00 26.6 5 Sudoeste 12 Sudoeste 0 -- -- 37
2017-09-23 20:00:00 29.2 6 Sudoeste 14 Sur 0 -- -- 35
2017-09-23 19:00:00 30.8 7 Sur 14 Sur 0 -- -- 34
2017-09-23 18:00:00 30.7 6 Sudoeste 14 Sudoeste 0 -- -- 33
2017-09-23 17:00:00 30.2 4 Noroeste 15 Noroeste 0 -- -- 34
2017-09-23 16:00:00 29.5 8 Norte 19 Sudoeste 0 -- -- 35
2017-09-23 15:00:00 29.4 4 Sudeste 19 Noroeste 0 -- -- 38
2017-09-23 14:00:00 27.6 4 Sur 15 Nordeste 0 -- -- 42
2017-09-23 13:00:00 26.4 8 Nordeste 17 Norte 0 -- -- 47
2017-09-23 12:00:00 24.5 6 Nordeste 11 Este 0 -- -- 54
2017-09-23 11:00:00 22.7 0 Calma 5 Este 0 -- -- 63
2017-09-23 10:00:00 19.3 3 Sudoeste 4 Sudoeste 0 -- -- 67
2017-09-23 09:00:00 17.8 0 Calma 3 Este 0 -- -- 70
2017-09-23 08:00:00 18 3 Este 9 Este 0 -- -- 70
2017-09-23 07:00:00 18.1 6 Este 8 Este 0 -- -- 69
2017-09-23 06:00:00 18.9 2 Norte 7 Noroeste 0 -- -- 70
2017-09-23 05:00:00 19.4 2 Noroeste 10 Oeste 0 -- -- 71
2017-09-23 04:00:00 20.2 3 Oeste 14 Sudoeste 0 -- -- 67
2017-09-23 03:00:00 21 8 Sudoeste 19 Sudoeste 0 -- -- 65
2017-09-23 02:00:00 21.7 9 Sudoeste 24 Sur 0 -- -- 61
2017-09-23 01:00:00 22.4 14 Sudoeste 31 Sudoeste 0 -- -- 56
2017-09-23 00:00:00 23.1 13 Sudoeste 23 Sudoeste 0 -- -- 51